sensor_id;sensor_type;location;lat;lon;timestamp;temperature;humidity
16060;DHT22;8134;49.552;7.632;2023-07-31T02:33:35;19.10;99.90
16060;DHT22;8134;49.552;7.632;2023-07-31T02:36:03;19.10;99.90
16060;DHT22;8134;49.552;7.632;2023-07-31T03:00:49;19.10;99.90
16060;DHT22;8134;49.552;7.632;2023-07-31T03:03:18;19.10;99.90
16060;DHT22;8134;49.552;7.632;2023-07-31T03:06:04;19.10;99.90
16060;DHT22;8134;49.552;7.632;2023-07-31T03:09:16;19.10;99.90
16060;DHT22;8134;49.552;7.632;2023-07-31T12:07:54;21.50;98.60
16060;DHT22;8134;49.552;7.632;2023-07-31T12:10:30;22.20;97.80
16060;DHT22;8134;49.552;7.632;2023-07-31T12:15:41;22.50;97.30
16060;DHT22;8134;49.552;7.632;2023-07-31T12:18:13;22.70;97.00
16060;DHT22;8134;49.552;7.632;2023-07-31T12:20:47;22.70;96.30
16060;DHT22;8134;49.552;7.632;2023-07-31T12:23:19;22.80;96.90
16060;DHT22;8134;49.552;7.632;2023-07-31T12:28:36;22.80;96.90
16060;DHT22;8134;49.552;7.632;2023-07-31T12:31:03;22.90;97.40
16060;DHT22;8134;49.552;7.632;2023-07-31T12:33:34;22.90;97.00
16060;DHT22;8134;49.552;7.632;2023-07-31T12:36:02;22.90;96.70
16060;DHT22;8134;49.552;7.632;2023-07-31T12:38:28;22.90;97.00
16060;DHT22;8134;49.552;7.632;2023-07-31T12:40:54;22.90;96.40
16060;DHT22;8134;49.552;7.632;2023-07-31T12:43:20;22.80;96.00
16060;DHT22;8134;49.552;7.632;2023-07-31T12:45:53;22.80;96.50
16060;DHT22;8134;49.552;7.632;2023-07-31T12:48:19;22.70;96.30
16060;DHT22;8134;49.552;7.632;2023-07-31T12:56:54;22.60;96.80
16060;DHT22;8134;49.552;7.632;2023-07-31T12:59:20;22.50;96.90
16060;DHT22;8134;49.552;7.632;2023-07-31T13:01:45;22.50;97.30
16060;DHT22;8134;49.552;7.632;2023-07-31T13:04:11;22.50;97.00
16060;DHT22;8134;49.552;7.632;2023-07-31T13:06:37;22.40;97.00
16060;DHT22;8134;49.552;7.632;2023-07-31T13:09:02;22.40;97.70
16060;DHT22;8134;49.552;7.632;2023-07-31T13:11:34;22.40;97.30
16060;DHT22;8134;49.552;7.632;2023-07-31T13:19:49;22.50;96.90
16060;DHT22;8134;49.552;7.632;2023-07-31T13:22:15;22.40;96.70
16060;DHT22;8134;49.552;7.632;2023-07-31T13:24:56;22.40;97.10
16060;DHT22;8134;49.552;7.632;2023-07-31T13:27:25;22.50;97.30
16060;DHT22;8134;49.552;7.632;2023-07-31T13:29:53;22.50;97.00
16060;DHT22;8134;49.552;7.632;2023-07-31T13:32:19;22.40;96.60
16060;DHT22;8134;49.552;7.632;2023-07-31T13:34:57;22.40;96.90
16060;DHT22;8134;49.552;7.632;2023-07-31T13:43:32;22.50;97.30
16060;DHT22;8134;49.552;7.632;2023-07-31T13:46:13;22.40;96.70
16060;DHT22;8134;49.552;7.632;2023-07-31T13:57:40;22.50;97.80
16060;DHT22;8134;49.552;7.632;2023-07-31T14:00:49;22.50;98.00
16060;DHT22;8134;49.552;7.632;2023-07-31T14:09:27;22.50;97.90
16060;DHT22;8134;49.552;7.632;2023-07-31T14:52:20;22.70;98.30
16060;DHT22;8134;49.552;7.632;2023-07-31T15:00:52;22.80;98.20
16060;DHT22;8134;49.552;7.632;2023-07-31T15:03:18;22.70;98.70
16060;DHT22;8134;49.552;7.632;2023-07-31T15:05:44;22.70;98.70
16060;DHT22;8134;49.552;7.632;2023-07-31T15:08:10;22.70;99.00
16060;DHT22;8134;49.552;7.632;2023-07-31T15:10:35;22.70;99.20
16060;DHT22;8134;49.552;7.632;2023-07-31T15:13:01;22.70;98.70
16060;DHT22;8134;49.552;7.632;2023-07-31T15:15:27;22.70;98.80
16060;DHT22;8134;49.552;7.632;2023-07-31T15:17:52;22.70;99.80
16060;DHT22;8134;49.552;7.632;2023-07-31T15:20:18;22.70;99.40
16060;DHT22;8134;49.552;7.632;2023-07-31T15:22:43;22.70;99.90
16060;DHT22;8134;49.552;7.632;2023-07-31T15:31:03;22.70;99.20
16060;DHT22;8134;49.552;7.632;2023-07-31T15:33:29;22.70;99.90
16060;DHT22;8134;49.552;7.632;2023-07-31T15:35:54;22.70;99.10
16060;DHT22;8134;49.552;7.632;2023-07-31T15:38:21;22.60;99.20
16060;DHT22;8134;49.552;7.632;2023-07-31T15:40:48;22.60;99.00
16060;DHT22;8134;49.552;7.632;2023-07-31T15:43:14;22.70;99.30
16060;DHT22;8134;49.552;7.632;2023-07-31T15:45:40;22.60;98.70
16060;DHT22;8134;49.552;7.632;2023-07-31T15:53:39;22.60;98.90
16060;DHT22;8134;49.552;7.632;2023-07-31T15:56:05;22.50;98.40
16060;DHT22;8134;49.552;7.632;2023-07-31T15:58:31;22.50;99.20
16060;DHT22;8134;49.552;7.632;2023-07-31T16:00:57;22.50;98.80
16060;DHT22;8134;49.552;7.632;2023-07-31T16:03:23;22.40;99.10
16060;DHT22;8134;49.552;7.632;2023-07-31T16:05:49;22.40;98.20
16060;DHT22;8134;49.552;7.632;2023-07-31T16:08:14;22.30;98.00
16060;DHT22;8134;49.552;7.632;2023-07-31T16:10:40;22.30;98.50
16060;DHT22;8134;49.552;7.632;2023-07-31T16:13:05;22.30;98.70
16060;DHT22;8134;49.552;7.632;2023-07-31T16:15:31;22.30;98.80
16060;DHT22;8134;49.552;7.632;2023-07-31T16:17:57;22.30;98.50
16060;DHT22;8134;49.552;7.632;2023-07-31T16:20:22;22.30;98.30
16060;DHT22;8134;49.552;7.632;2023-07-31T16:22:48;22.30;98.70
16060;DHT22;8134;49.552;7.632;2023-07-31T16:25:14;22.30;98.90
16060;DHT22;8134;49.552;7.632;2023-07-31T16:27:39;22.20;98.70
16060;DHT22;8134;49.552;7.632;2023-07-31T16:30:05;22.30;98.60
16060;DHT22;8134;49.552;7.632;2023-07-31T16:38:17;22.20;99.90
16060;DHT22;8134;49.552;7.632;2023-07-31T16:40:42;22.20;99.90
16060;DHT22;8134;49.552;7.632;2023-07-31T16:43:09;22.30;99.90
16060;DHT22;8134;49.552;7.632;2023-07-31T16:45:34;22.20;99.90
16060;DHT22;8134;49.552;7.632;2023-07-31T16:48:00;22.10;99.90
16060;DHT22;8134;49.552;7.632;2023-07-31T16:50:26;22.10;99.90
16060;DHT22;8134;49.552;7.632;2023-07-31T16:52:51;22.10;99.90
16060;DHT22;8134;49.552;7.632;2023-07-31T16:55:17;22.00;99.90
16060;DHT22;8134;49.552;7.632;2023-07-31T16:57:42;21.90;99.90
16060;DHT22;8134;49.552;7.632;2023-07-31T17:00:08;21.80;99.90
16060;DHT22;8134;49.552;7.632;2023-07-31T17:02:34;21.80;99.90
16060;DHT22;8134;49.552;7.632;2023-07-31T17:05:00;21.70;99.90
16060;DHT22;8134;49.552;7.632;2023-07-31T17:07:26;21.60;99.90
16060;DHT22;8134;49.552;7.632;2023-07-31T17:09:51;21.60;99.90
16060;DHT22;8134;49.552;7.632;2023-07-31T17:12:18;21.50;99.90
16060;DHT22;8134;49.552;7.632;2023-07-31T17:14:44;21.50;99.90
16060;DHT22;8134;49.552;7.632;2023-07-31T17:17:09;21.50;99.90
16060;DHT22;8134;49.552;7.632;2023-07-31T17:19:35;21.40;99.90
16060;DHT22;8134;49.552;7.632;2023-07-31T17:22:01;21.40;99.90
16060;DHT22;8134;49.552;7.632;2023-07-31T17:24:26;21.40;99.90
16060;DHT22;8134;49.552;7.632;2023-07-31T17:26:52;21.30;99.90
16060;DHT22;8134;49.552;7.632;2023-07-31T17:29:17;21.30;99.90
16060;DHT22;8134;49.552;7.632;2023-07-31T17:31:43;21.20;99.90
16060;DHT22;8134;49.552;7.632;2023-07-31T17:34:08;21.20;99.90
16060;DHT22;8134;49.552;7.632;2023-07-31T17:36:52;21.20;99.90
16060;DHT22;8134;49.552;7.632;2023-07-31T17:39:26;21.20;99.90
16060;DHT22;8134;49.552;7.632;2023-07-31T17:41:52;21.00;99.90
16060;DHT22;8134;49.552;7.632;2023-07-31T17:56:58;20.70;99.90
16060;DHT22;8134;49.552;7.632;2023-07-31T18:12:23;20.70;99.90
16060;DHT22;8134;49.552;7.632;2023-07-31T18:25:08;20.60;99.90
16060;DHT22;8134;49.552;7.632;2023-07-31T18:31:33;20.70;99.90
16060;DHT22;8134;49.552;7.632;2023-07-31T18:34:21;20.70;99.90
16060;DHT22;8134;49.552;7.632;2023-07-31T18:58:40;20.50;99.90
16060;DHT22;8134;49.552;7.632;2023-07-31T19:04:09;20.50;99.90
16060;DHT22;8134;49.552;7.632;2023-07-31T19:06:57;20.50;99.90
16060;DHT22;8134;49.552;7.632;2023-07-31T19:09:41;20.40;99.90
16060;DHT22;8134;49.552;7.632;2023-07-31T19:15:42;20.50;99.90
16060;DHT22;8134;49.552;7.632;2023-07-31T19:19:06;20.50;99.90
16060;DHT22;8134;49.552;7.632;2023-07-31T19:22:03;20.50;99.90
16060;DHT22;8134;49.552;7.632;2023-07-31T19:37:12;20.30;99.90
16060;DHT22;8134;49.552;7.632;2023-07-31T19:55:23;20.10;99.90
16060;DHT22;8134;49.552;7.632;2023-07-31T19:57:50;20.10;99.90
16060;DHT22;8134;49.552;7.632;2023-07-31T20:03:45;20.10;99.90
16060;DHT22;8134;49.552;7.632;2023-07-31T20:12:39;20.00;99.90
16060;DHT22;8134;49.552;7.632;2023-07-31T20:18:09;20.00;99.90
16060;DHT22;8134;49.552;7.632;2023-07-31T20:21:14;20.00;99.90
16060;DHT22;8134;49.552;7.632;2023-07-31T20:23:39;20.00;99.90
16060;DHT22;8134;49.552;7.632;2023-07-31T20:29:25;20.10;99.90
16060;DHT22;8134;49.552;7.632;2023-07-31T20:38:28;19.90;99.90
16060;DHT22;8134;49.552;7.632;2023-07-31T21:13:04;19.30;99.90
16060;DHT22;8134;49.552;7.632;2023-07-31T21:15:30;19.30;99.90
16060;DHT22;8134;49.552;7.632;2023-07-31T21:23:31;19.10;99.90
16060;DHT22;8134;49.552;7.632;2023-07-31T21:25:56;19.10;99.90
16060;DHT22;8134;49.552;7.632;2023-07-31T21:28:22;19.10;99.90
16060;DHT22;8134;49.552;7.632;2023-07-31T21:30:47;19.10;99.90
16060;DHT22;8134;49.552;7.632;2023-07-31T21:42:41;19.00;99.90
16060;DHT22;8134;49.552;7.632;2023-07-31T21:48:09;19.00;99.90
16060;DHT22;8134;49.552;7.632;2023-07-31T21:50:35;19.00;99.90
16060;DHT22;8134;49.552;7.632;2023-07-31T22:20:49;19.30;99.90
16060;DHT22;8134;49.552;7.632;2023-07-31T22:26:18;19.30;99.90
16060;DHT22;8134;49.552;7.632;2023-07-31T22:28:43;19.30;99.90
16060;DHT22;8134;49.552;7.632;2023-07-31T22:46:03;19.20;99.90
16060;DHT22;8134;49.552;7.632;2023-07-31T22:54:37;19.20;99.90
16060;DHT22;8134;49.552;7.632;2023-07-31T23:21:37;18.90;99.90
16060;DHT22;8134;49.552;7.632;2023-07-31T23:36:24;18.90;99.90
16060;DHT22;8134;49.552;7.632;2023-07-31T23:38:50;19.00;99.90
16060;DHT22;8134;49.552;7.632;2023-07-31T23:46:47;19.00;99.90
